createdAt,value
2019-02-08T00:01:59.954Z,96.30
2019-02-08T00:04:26.625Z,96.40
2019-02-08T00:06:53.246Z,96.60
2019-02-08T00:09:19.950Z,96.20
2019-02-08T00:11:46.981Z,96.60
2019-02-08T00:14:13.653Z,96.40
2019-02-08T00:16:40.286Z,96.50
2019-02-08T00:19:06.964Z,96.40
2019-02-08T00:21:33.691Z,96.40
2019-02-08T00:24:00.401Z,96.50
2019-02-08T00:26:27.163Z,96.50
2019-02-08T00:28:53.882Z,96.30
2019-02-08T00:31:21.053Z,96.40
2019-02-08T00:33:47.747Z,96.30
2019-02-08T00:36:14.406Z,96.40
2019-02-08T00:38:41.022Z,96.40
2019-02-08T00:41:07.806Z,96.70
2019-02-08T00:43:34.428Z,96.70
2019-02-08T00:46:01.113Z,96.40
2019-02-08T00:48:27.768Z,96.20
2019-02-08T00:50:54.420Z,96.10
2019-02-08T00:53:21.510Z,96.00
2019-02-08T00:55:48.296Z,96.30
2019-02-08T00:58:14.963Z,95.90
2019-02-08T01:00:41.693Z,95.90
2019-02-08T01:03:08.486Z,96.00
2019-02-08T01:05:35.127Z,95.90
2019-02-08T01:08:01.845Z,96.20
2019-02-08T01:10:32.486Z,96.10
2019-02-08T01:13:00.363Z,96.20
2019-02-08T01:15:28.366Z,96.10
2019-02-08T01:17:55.141Z,96.10
2019-02-08T01:20:23.477Z,96.10
2019-02-08T01:22:50.463Z,96.00
2019-02-08T01:25:21.818Z,96.10
2019-02-08T01:27:48.573Z,96.10
2019-02-08T01:30:23.249Z,96.00
2019-02-08T01:32:50.324Z,96.10
2019-02-08T01:35:18.445Z,96.10
2019-02-08T01:37:45.525Z,96.10
2019-02-08T01:40:14.855Z,95.90
2019-02-08T01:42:41.513Z,95.80
2019-02-08T01:45:11.646Z,96.10
2019-02-08T01:47:38.329Z,95.80
2019-02-08T01:50:08.558Z,96.00
2019-02-08T01:52:35.274Z,96.10
2019-02-08T01:55:01.924Z,96.00
2019-02-08T01:57:28.689Z,96.00
2019-02-08T01:59:55.347Z,95.90
2019-02-08T02:02:21.988Z,95.60
2019-02-08T02:04:48.770Z,95.90
2019-02-08T02:07:15.425Z,96.10
2019-02-08T02:09:42.197Z,96.30
2019-02-08T02:12:08.810Z,96.10
2019-02-08T02:17:17.565Z,96.00
2019-02-08T02:19:44.248Z,95.80
2019-02-08T02:22:10.986Z,96.10
2019-02-08T02:24:37.671Z,96.00
2019-02-08T02:27:04.329Z,95.70
2019-02-08T02:29:31.026Z,95.60
2019-02-08T02:31:57.754Z,95.60
2019-02-08T02:34:24.423Z,95.50
2019-02-08T02:36:51.067Z,95.30
2019-02-08T02:39:17.721Z,95.20
2019-02-08T02:41:44.380Z,95.50
2019-02-08T02:44:11.035Z,95.70
2019-02-08T02:46:37.691Z,95.50
2019-02-08T02:49:04.360Z,95.70
2019-02-08T02:51:30.997Z,95.50
2019-02-08T02:54:04.697Z,95.40
2019-02-08T02:56:26.137Z,95.50
2019-02-08T02:58:52.806Z,95.50
2019-02-08T03:01:19.524Z,95.40
2019-02-08T03:03:46.287Z,95.60
2019-02-08T03:06:13.282Z,95.70
2019-02-08T03:08:39.960Z,95.60
2019-02-08T03:11:06.594Z,95.60
2019-02-08T03:13:33.274Z,95.30
2019-02-08T03:15:59.938Z,95.10
2019-02-08T03:18:26.706Z,95.10
2019-02-08T03:20:53.483Z,95.30
2019-02-08T03:23:20.114Z,95.60
2019-02-08T03:25:46.817Z,95.60
2019-02-08T03:28:13.560Z,95.50
2019-02-08T03:30:44.664Z,95.50
2019-02-08T03:33:11.286Z,95.30
2019-02-08T03:35:38.156Z,95.40
2019-02-08T03:38:04.898Z,95.30
2019-02-08T03:40:31.685Z,95.20
2019-02-08T03:42:58.407Z,95.40
2019-02-08T03:45:27.000Z,95.40
2019-02-08T03:47:54.013Z,95.50
2019-02-08T03:50:22.387Z,95.90
2019-02-08T03:52:49.924Z,95.80
2019-02-08T03:55:18.812Z,95.60
2019-02-08T03:57:45.450Z,95.90
2019-02-08T04:00:15.207Z,95.70
2019-02-08T04:02:41.914Z,95.80
2019-02-08T04:05:08.581Z,95.70
2019-02-08T04:07:35.315Z,95.70
2019-02-08T04:10:04.076Z,95.70
2019-02-08T04:12:30.803Z,95.40
2019-02-08T04:14:57.423Z,95.60
2019-02-08T04:17:24.087Z,95.70
2019-02-08T04:19:50.730Z,95.60
2019-02-08T04:22:17.394Z,95.70
2019-02-08T04:24:44.049Z,95.70
2019-02-08T04:27:10.709Z,95.70
2019-02-08T04:29:37.362Z,95.50
2019-02-08T04:32:03.976Z,95.50
2019-02-08T04:34:30.669Z,95.60
2019-02-08T04:36:57.289Z,95.60
2019-02-08T04:39:23.981Z,95.70
2019-02-08T04:41:50.719Z,95.60
2019-02-08T04:44:17.525Z,95.50
2019-02-08T04:46:44.206Z,95.40
2019-02-08T04:49:10.841Z,95.40
2019-02-08T04:51:37.514Z,95.50
2019-02-08T04:54:04.154Z,95.40
2019-02-08T04:56:30.826Z,95.40
2019-02-08T04:58:57.465Z,95.60
2019-02-08T05:01:24.265Z,95.70
2019-02-08T05:03:50.954Z,95.60
2019-02-08T05:06:17.580Z,95.70
2019-02-08T05:08:44.341Z,95.60
2019-02-08T05:11:10.991Z,95.60
2019-02-08T05:13:37.777Z,95.70
2019-02-08T05:16:04.529Z,95.80
2019-02-08T05:18:31.237Z,95.90
2019-02-08T05:20:57.865Z,95.70
2019-02-08T05:23:24.546Z,95.80
2019-02-08T05:25:51.164Z,95.70
2019-02-08T05:28:17.786Z,95.70
2019-02-08T05:30:44.481Z,95.70
2019-02-08T05:33:11.141Z,95.80
2019-02-08T05:35:37.784Z,95.80
2019-02-08T05:38:04.610Z,95.70
2019-02-08T05:40:31.768Z,95.70
2019-02-08T05:42:58.909Z,95.80
2019-02-08T05:45:25.839Z,95.70
2019-02-08T05:47:52.662Z,95.60
2019-02-08T05:50:27.739Z,95.60
2019-02-08T05:52:54.810Z,95.60
2019-02-08T05:55:27.372Z,95.50
2019-02-08T05:57:54.033Z,95.70
2019-02-08T06:00:34.734Z,95.60
2019-02-08T06:03:01.431Z,95.80
2019-02-08T06:05:28.153Z,95.80
2019-02-08T06:07:54.847Z,95.80
2019-02-08T06:10:21.488Z,95.90
2019-02-08T06:12:48.114Z,95.90
2019-02-08T06:15:22.797Z,95.90
2019-02-08T06:17:49.464Z,95.80
2019-02-08T06:20:20.766Z,96.00
2019-02-08T06:22:47.413Z,96.00
2019-02-08T06:25:15.673Z,96.00
2019-02-08T06:27:42.902Z,95.90
2019-02-08T06:30:24.102Z,95.80
2019-02-08T06:32:51.070Z,95.90
2019-02-08T06:35:19.712Z,96.00
2019-02-08T06:37:46.558Z,96.10
2019-02-08T06:40:21.614Z,95.80
2019-02-08T06:42:48.583Z,95.80
2019-02-08T06:45:17.957Z,95.90
2019-02-08T06:47:44.693Z,95.90
2019-02-08T06:50:14.665Z,95.80
2019-02-08T06:52:41.291Z,95.90
2019-02-08T06:55:11.034Z,95.70
2019-02-08T06:57:38.480Z,95.80
2019-02-08T07:00:09.456Z,96.10
2019-02-08T07:02:38.019Z,95.70
2019-02-08T07:05:26.084Z,95.70
2019-02-08T07:07:57.425Z,95.50
2019-02-08T07:10:42.344Z,95.40
2019-02-08T07:13:10.869Z,95.40
2019-02-08T07:15:42.012Z,95.40
2019-02-08T07:18:13.521Z,95.40
2019-02-08T07:20:42.049Z,95.40
2019-02-08T07:23:10.645Z,95.40
2019-02-08T07:25:41.936Z,95.30
2019-02-08T07:28:19.325Z,95.20
2019-02-08T07:30:50.394Z,95.30
2019-02-08T07:33:21.648Z,95.40
2019-02-08T07:35:59.589Z,95.40
2019-02-08T07:38:30.971Z,95.30
2019-02-08T07:41:12.899Z,95.70
2019-02-08T07:43:58.026Z,95.30
2019-02-08T07:46:29.905Z,95.40
2019-02-08T07:48:58.854Z,95.30
2019-02-08T07:51:33.417Z,95.10
2019-02-08T07:54:04.766Z,95.10
2019-02-08T07:56:48.508Z,95.10
2019-02-08T07:59:19.781Z,95.10
2019-02-08T08:01:48.347Z,95.00
2019-02-08T08:04:23.817Z,95.30
2019-02-08T08:06:55.365Z,95.00
2019-02-08T08:09:42.658Z,95.00
2019-02-08T08:12:27.057Z,95.10
2019-02-08T08:14:55.679Z,95.00
2019-02-08T08:17:40.864Z,95.00
2019-02-08T08:20:13.101Z,95.00
2019-02-08T08:22:56.802Z,95.00
2019-02-08T08:25:37.914Z,95.00
2019-02-08T08:28:12.017Z,95.00
2019-02-08T08:30:46.791Z,94.90
2019-02-08T08:33:17.630Z,94.90
2019-02-08T08:35:47.913Z,94.90
2019-02-08T08:38:27.425Z,94.70
2019-02-08T08:41:14.547Z,94.70
2019-02-08T08:43:50.569Z,94.80
2019-02-08T08:46:50.185Z,94.80
2019-02-08T08:49:40.448Z,94.70
2019-02-08T08:52:20.070Z,94.60
2019-02-08T08:55:10.533Z,94.50
2019-02-08T08:57:50.145Z,94.50
2019-02-08T09:00:46.373Z,94.40
2019-02-08T09:03:25.540Z,94.40
2019-02-08T09:06:12.483Z,94.50
2019-02-08T09:08:48.480Z,94.40
2019-02-08T09:11:24.874Z,94.30
2019-02-08T09:14:01.154Z,94.30
2019-02-08T09:16:46.610Z,94.30
2019-02-08T09:19:47.651Z,94.20
2019-02-08T09:22:39.064Z,94.10
2019-02-08T09:25:26.002Z,94.10
2019-02-08T09:28:05.212Z,94.00
2019-02-08T09:30:50.471Z,94.00
2019-02-08T09:33:20.766Z,94.00
2019-02-08T09:35:56.829Z,93.90
2019-02-08T09:38:38.696Z,93.90
2019-02-08T09:41:17.594Z,93.80
2019-02-08T09:44:02.718Z,93.90
2019-02-08T09:46:49.870Z,93.70
2019-02-08T09:49:32.188Z,93.70
2019-02-08T09:52:30.206Z,93.80
2019-02-08T09:55:03.105Z,93.80
2019-02-08T09:57:51.739Z,93.80
2019-02-08T10:00:52.680Z,93.80
2019-02-08T10:03:42.584Z,93.80
2019-02-08T10:06:44.709Z,93.80
2019-02-08T10:09:41.141Z,93.90
2019-02-08T10:12:38.293Z,93.70
2019-02-08T10:15:25.189Z,93.60
2019-02-08T10:18:29.451Z,93.60
2019-02-08T10:21:14.664Z,93.60
2019-02-08T10:24:08.761Z,93.70
2019-02-08T10:27:07.989Z,93.60
2019-02-08T10:30:01.449Z,93.50
2019-02-08T10:33:03.477Z,93.30
2019-02-08T10:35:45.649Z,93.30
2019-02-08T10:38:35.319Z,93.30
2019-02-08T10:41:30.501Z,93.30
2019-02-08T10:44:13.121Z,93.10
2019-02-08T10:47:12.300Z,93.10
2019-02-08T10:49:51.590Z,93.30
2019-02-08T10:52:40.189Z,93.30
2019-02-08T10:55:27.261Z,93.10
2019-02-08T10:58:20.508Z,93.10
2019-02-08T11:01:19.619Z,93.10
2019-02-08T11:04:25.226Z,93.30
2019-02-08T11:07:28.057Z,93.30
2019-02-08T11:10:06.881Z,93.30
2019-02-08T11:12:39.033Z,93.40
2019-02-08T11:15:32.241Z,93.30
2019-02-08T11:18:14.486Z,93.30
2019-02-08T11:20:41.149Z,93.20
2019-02-08T11:23:07.905Z,93.20
2019-02-08T11:25:34.598Z,93.30
2019-02-08T11:28:01.424Z,93.20
2019-02-08T11:30:28.149Z,93.20
2019-02-08T11:32:54.968Z,93.00
2019-02-08T11:35:21.655Z,92.90
2019-02-08T11:37:48.369Z,93.00
2019-02-08T11:40:18.669Z,93.00
2019-02-08T11:42:45.337Z,93.00
2019-02-08T11:45:14.133Z,93.00
2019-02-08T11:47:41.122Z,93.00
2019-02-08T11:50:11.417Z,93.00
2019-02-08T11:52:38.238Z,92.90
2019-02-08T11:55:07.290Z,92.80
2019-02-08T11:57:34.382Z,92.70
2019-02-08T12:00:01.399Z,92.80
2019-02-08T12:02:28.061Z,92.80
2019-02-08T12:04:54.787Z,92.80
2019-02-08T12:07:21.422Z,92.80
2019-02-08T12:09:48.097Z,92.80
2019-02-08T12:12:14.738Z,93.00
2019-02-08T12:14:41.421Z,92.90
2019-02-08T12:17:08.050Z,92.80
2019-02-08T12:19:34.776Z,92.70
2019-02-08T12:22:01.437Z,92.90
2019-02-08T12:24:28.138Z,92.80
2019-02-08T12:26:54.886Z,92.70
2019-02-08T12:29:21.641Z,92.70
2019-02-08T12:31:48.272Z,92.80
2019-02-08T12:34:14.917Z,92.60
2019-02-08T12:36:41.588Z,92.90
2019-02-08T12:39:08.312Z,92.70
2019-02-08T12:41:34.978Z,92.70
2019-02-08T12:44:01.610Z,92.60
2019-02-08T12:46:28.627Z,92.70
2019-02-08T12:48:55.257Z,92.70
2019-02-08T12:51:21.909Z,92.80
2019-02-08T12:53:48.540Z,92.80
2019-02-08T12:56:15.296Z,92.70
2019-02-08T12:58:42.073Z,92.70
2019-02-08T13:01:08.849Z,92.90
2019-02-08T13:03:35.497Z,92.80
2019-02-08T13:06:02.165Z,92.70
2019-02-08T13:08:28.839Z,92.70
2019-02-08T13:10:55.461Z,92.80
2019-02-08T13:13:22.133Z,92.70
2019-02-08T13:15:48.924Z,92.60
2019-02-08T13:18:15.545Z,92.70
2019-02-08T13:20:42.466Z,92.60
2019-02-08T13:23:09.077Z,92.50
2019-02-08T13:25:35.773Z,92.50
2019-02-08T13:28:02.401Z,92.50
2019-02-08T13:30:31.586Z,92.40
2019-02-08T13:32:58.212Z,92.30
2019-02-08T13:35:25.183Z,92.20
2019-02-08T13:37:51.825Z,92.30
2019-02-08T13:40:24.669Z,92.20
2019-02-08T13:42:51.309Z,92.30
2019-02-08T13:45:17.977Z,92.30
2019-02-08T13:47:44.769Z,92.20
2019-02-08T13:50:20.029Z,92.20
2019-02-08T13:52:46.757Z,92.30
2019-02-08T13:55:17.027Z,92.40
2019-02-08T13:57:43.734Z,92.30
2019-02-08T14:00:14.050Z,92.20
2019-02-08T14:02:40.843Z,92.30
2019-02-08T14:05:08.360Z,92.20
2019-02-08T14:07:35.018Z,92.10
2019-02-08T14:10:03.374Z,92.10
2019-02-08T14:12:30.037Z,92.10
2019-02-08T14:14:56.769Z,92.10
2019-02-08T14:17:23.466Z,92.10
2019-02-08T14:19:50.150Z,92.10
2019-02-08T14:22:16.853Z,92.40
2019-02-08T14:24:43.620Z,92.00
2019-02-08T14:27:10.285Z,92.00
2019-02-08T14:29:36.934Z,92.00
2019-02-08T14:32:03.595Z,92.40
2019-02-08T14:34:30.553Z,92.10
2019-02-08T14:36:57.204Z,92.50
2019-02-08T14:39:23.856Z,92.20
2019-02-08T14:41:50.511Z,92.10
2019-02-08T14:44:17.173Z,92.10
2019-02-08T14:46:45.189Z,92.00
2019-02-08T14:49:11.852Z,92.00
2019-02-08T14:51:38.480Z,91.90
2019-02-08T14:54:05.943Z,91.90
2019-02-08T14:56:32.784Z,91.90
2019-02-08T14:59:00.426Z,91.90
2019-02-08T15:01:27.030Z,91.80
2019-02-08T15:03:53.690Z,91.80
2019-02-08T15:06:20.355Z,91.70
2019-02-08T15:08:47.683Z,91.80
2019-02-08T15:11:14.486Z,91.70
2019-02-08T15:13:41.236Z,91.70
2019-02-08T15:16:08.559Z,91.60
2019-02-08T15:18:35.142Z,91.70
2019-02-08T15:21:01.830Z,91.70
2019-02-08T15:23:28.604Z,91.70
2019-02-08T15:25:55.222Z,91.70
2019-02-08T15:28:21.910Z,91.70
2019-02-08T15:30:48.648Z,91.80
2019-02-08T15:33:15.645Z,91.70
2019-02-08T15:35:42.287Z,91.60
2019-02-08T15:38:08.957Z,91.70
2019-02-08T15:40:39.921Z,91.70
2019-02-08T15:43:07.817Z,91.70
2019-02-08T15:45:34.665Z,91.60
2019-02-08T15:48:01.322Z,91.60
2019-02-08T15:50:27.951Z,91.60
2019-02-08T15:52:54.613Z,91.60
2019-02-08T15:55:24.292Z,91.70
2019-02-08T15:57:50.914Z,91.70
2019-02-08T16:00:23.297Z,91.70
2019-02-08T16:02:50.124Z,91.70
2019-02-08T16:05:18.811Z,91.60
2019-02-08T16:07:45.533Z,91.70
2019-02-08T16:10:12.577Z,91.60
2019-02-08T16:12:39.252Z,91.50
2019-02-08T16:15:15.532Z,91.60
2019-02-08T16:17:42.271Z,91.50
2019-02-08T16:20:09.546Z,91.40
2019-02-08T16:22:36.205Z,91.50
2019-02-08T16:25:06.474Z,91.60
2019-02-08T16:27:39.768Z,91.60
2019-02-08T16:30:01.768Z,91.60
2019-02-08T16:32:28.388Z,91.60
2019-02-08T16:34:55.062Z,91.60
2019-02-08T16:37:21.700Z,91.60
2019-02-08T16:39:50.963Z,91.50
2019-02-08T16:42:17.666Z,91.60
2019-02-08T16:44:44.363Z,91.40
2019-02-08T16:47:11.099Z,91.40
2019-02-08T16:49:37.720Z,91.30
2019-02-08T16:52:04.386Z,91.40
2019-02-08T16:54:31.024Z,91.30
2019-02-08T16:56:57.698Z,91.50
2019-02-08T16:59:24.324Z,91.40
2019-02-08T17:01:51.005Z,91.30
2019-02-08T17:04:17.632Z,91.40
2019-02-08T17:06:44.278Z,91.40
2019-02-08T17:09:11.655Z,91.40
2019-02-08T17:11:38.291Z,91.40
2019-02-08T17:14:04.948Z,91.40
2019-02-08T17:16:31.647Z,91.40
2019-02-08T17:18:58.271Z,91.40
2019-02-08T17:21:25.054Z,91.50
2019-02-08T17:23:51.745Z,91.50
2019-02-08T17:26:18.510Z,91.60
2019-02-08T17:28:45.144Z,91.90
2019-02-08T17:31:11.821Z,91.50
2019-02-08T17:33:38.574Z,91.40
2019-02-08T17:36:05.205Z,91.40
2019-02-08T17:38:31.892Z,91.40
2019-02-08T17:40:58.549Z,91.40
2019-02-08T17:43:25.209Z,91.40
2019-02-08T17:45:51.873Z,91.50
2019-02-08T17:48:18.627Z,91.40
2019-02-08T17:50:45.303Z,91.40
2019-02-08T17:53:11.920Z,91.70
2019-02-08T17:55:38.577Z,91.30
2019-02-08T17:58:05.334Z,91.30
2019-02-08T18:00:40.552Z,91.20
2019-02-08T18:03:07.533Z,91.10
2019-02-08T18:05:34.428Z,91.10
2019-02-08T18:08:01.096Z,91.20
2019-02-08T18:10:27.916Z,91.20
2019-02-08T18:12:54.589Z,91.10
2019-02-08T18:15:25.304Z,91.10
2019-02-08T18:17:52.091Z,91.20
2019-02-08T18:20:22.178Z,91.10
2019-02-08T18:22:48.896Z,90.90
2019-02-08T18:25:15.829Z,91.20
2019-02-08T18:27:42.513Z,91.20
2019-02-08T18:30:17.785Z,91.20
2019-02-08T18:32:44.461Z,91.10
2019-02-08T18:35:11.288Z,91.10
2019-02-08T18:37:37.977Z,91.00
2019-02-08T18:40:08.218Z,90.90
2019-02-08T18:42:34.916Z,90.90
2019-02-08T18:45:01.579Z,91.00
2019-02-08T18:47:28.256Z,90.90
2019-02-08T18:49:54.886Z,90.90
2019-02-08T18:52:21.586Z,90.80
2019-02-08T18:54:48.238Z,90.80
2019-02-08T18:57:15.009Z,90.60
2019-02-08T18:59:41.670Z,90.60
2019-02-08T19:02:08.285Z,90.70
2019-02-08T19:04:34.941Z,90.50
2019-02-08T19:07:01.566Z,90.40
2019-02-08T19:09:28.328Z,90.20
2019-02-08T19:11:55.056Z,90.20
2019-02-08T19:14:21.717Z,90.30
2019-02-08T19:16:48.349Z,90.10
2019-02-08T19:19:15.106Z,90.00
2019-02-08T19:21:41.789Z,90.10
2019-02-08T19:24:08.513Z,90.10
2019-02-08T19:26:35.181Z,90.00
2019-02-08T19:29:01.838Z,89.80
2019-02-08T19:31:28.495Z,89.70
2019-02-08T19:33:55.118Z,89.70
2019-02-08T19:36:21.773Z,89.60
2019-02-08T19:38:48.445Z,89.70
2019-02-08T19:41:15.162Z,89.60
2019-02-08T19:43:41.864Z,89.50
2019-02-08T19:46:08.621Z,89.70
2019-02-08T19:48:35.387Z,89.50
2019-02-08T19:51:02.000Z,89.20
2019-02-08T19:53:28.661Z,89.20
2019-02-08T19:55:55.280Z,89.10
2019-02-08T19:58:21.933Z,89.00
2019-02-08T20:00:48.585Z,89.10
2019-02-08T20:03:15.244Z,89.00
2019-02-08T20:05:41.973Z,89.10
2019-02-08T20:08:10.489Z,88.80
2019-02-08T20:10:42.790Z,88.80
2019-02-08T20:13:09.437Z,88.50
2019-02-08T20:15:36.204Z,88.40
2019-02-08T20:18:03.646Z,88.20
2019-02-08T20:20:30.309Z,88.20
2019-02-08T20:22:57.073Z,88.00
2019-02-08T20:25:29.573Z,87.90
2019-02-08T20:27:56.344Z,87.80
2019-02-08T20:30:24.019Z,88.00
2019-02-08T20:32:50.744Z,88.80
2019-02-08T20:35:24.879Z,87.90
2019-02-08T20:37:52.208Z,88.00
2019-02-08T20:40:30.677Z,87.80
2019-02-08T20:42:57.392Z,87.50
2019-02-08T20:45:29.227Z,87.50
2019-02-08T20:47:57.183Z,87.70
2019-02-08T20:50:23.946Z,87.50
2019-02-08T20:52:51.124Z,87.40
2019-02-08T20:55:18.777Z,87.40
2019-02-08T20:57:45.800Z,87.40
2019-02-08T21:00:29.146Z,87.40
2019-02-08T21:02:57.609Z,87.50
2019-02-08T21:05:24.294Z,87.40
2019-02-08T21:07:50.920Z,87.20
2019-02-08T21:10:17.575Z,87.10
2019-02-08T21:12:44.196Z,87.10
2019-02-08T21:15:14.480Z,87.10
2019-02-08T21:17:41.125Z,87.20
2019-02-08T21:20:10.976Z,87.80
2019-02-08T21:22:37.746Z,87.00
2019-02-08T21:25:10.640Z,86.80
2019-02-08T21:27:37.260Z,87.10
2019-02-08T21:30:07.501Z,86.80
2019-02-08T21:32:34.160Z,86.80
2019-02-08T21:35:00.816Z,87.00
2019-02-08T21:37:27.475Z,86.60
2019-02-08T21:39:54.129Z,86.40
2019-02-08T21:42:22.649Z,86.30
2019-02-08T21:44:49.312Z,86.50
2019-02-08T21:47:15.991Z,86.20
2019-02-08T21:49:42.624Z,86.40
2019-02-08T21:52:09.270Z,86.40
2019-02-08T21:54:35.977Z,86.40
2019-02-08T21:57:02.597Z,86.10
2019-02-08T21:59:29.557Z,85.80
2019-02-08T22:01:56.206Z,85.70
2019-02-08T22:04:22.862Z,86.00
2019-02-08T22:06:49.584Z,85.70
2019-02-08T22:09:16.328Z,85.80
2019-02-08T22:11:42.952Z,85.50
2019-02-08T22:14:09.722Z,85.50
2019-02-08T22:16:36.353Z,85.50
2019-02-08T22:19:03.019Z,85.50
2019-02-08T22:21:29.652Z,85.20
2019-02-08T22:23:56.346Z,85.30
2019-02-08T22:26:22.967Z,86.00
2019-02-08T22:28:49.607Z,85.30
2019-02-08T22:31:16.267Z,85.40
2019-02-08T22:33:42.954Z,85.30
2019-02-08T22:36:09.720Z,85.30
2019-02-08T22:38:36.417Z,85.10
2019-02-08T22:41:03.288Z,85.00
2019-02-08T22:43:29.902Z,84.80
2019-02-08T22:45:56.535Z,84.70
2019-02-08T22:48:23.282Z,85.00
2019-02-08T22:50:49.901Z,84.50
2019-02-08T22:53:16.560Z,84.00
2019-02-08T22:55:43.188Z,83.70
2019-02-08T22:58:09.827Z,83.50
2019-02-08T23:00:52.112Z,83.40
2019-02-08T23:03:18.796Z,83.60
2019-02-08T23:05:46.202Z,83.50
2019-02-08T23:08:13.066Z,83.40
2019-02-08T23:10:39.745Z,82.90
2019-02-08T23:13:07.965Z,82.70
2019-02-08T23:15:34.846Z,82.90
2019-02-08T23:18:01.456Z,82.80
2019-02-08T23:20:28.153Z,82.70
2019-02-08T23:22:56.390Z,82.90
2019-02-08T23:25:23.069Z,82.50
2019-02-08T23:27:49.689Z,82.50
2019-02-08T23:30:18.111Z,82.70
2019-02-08T23:32:44.776Z,82.50
2019-02-08T23:35:12.915Z,82.50
2019-02-08T23:37:39.616Z,83.40
2019-02-08T23:40:10.983Z,82.30
2019-02-08T23:42:37.664Z,82.50
2019-02-08T23:45:16.389Z,82.80
2019-02-08T23:47:43.041Z,82.70
2019-02-08T23:50:12.809Z,82.90
2019-02-08T23:52:39.473Z,83.10
2019-02-08T23:55:07.518Z,82.90
2019-02-08T23:57:34.188Z,83.00
